createdAt,value
2017-07-31T00:01:08.168Z,100141.23
2017-07-31T00:03:35.621Z,100139.83
2017-07-31T00:06:03.144Z,100152.44
2017-07-31T00:08:30.620Z,100158.56
2017-07-31T00:10:58.096Z,100152.36
2017-07-31T00:13:25.631Z,100144.77
2017-07-31T00:15:53.197Z,100144.44
2017-07-31T00:18:20.644Z,100146.65
2017-07-31T00:20:48.115Z,100148.09
2017-07-31T00:23:15.663Z,100142.75
2017-07-31T00:25:44.691Z,100141.80
2017-07-31T00:28:12.163Z,100136.17
2017-07-31T00:30:39.623Z,100130.30
2017-07-31T00:33:07.107Z,100137.04
2017-07-31T00:35:34.591Z,100139.95
2017-07-31T00:38:04.236Z,100143.83
2017-07-31T00:40:31.694Z,100137.23
2017-07-31T00:42:59.205Z,100141.38
2017-07-31T00:45:26.660Z,100146.84
2017-07-31T00:47:54.133Z,100149.14
2017-07-31T00:50:21.679Z,100145.98
2017-07-31T00:52:49.240Z,100148.27
2017-07-31T00:55:16.793Z,100146.70
2017-07-31T00:57:44.348Z,100147.67
2017-07-31T01:00:11.820Z,100141.50
2017-07-31T01:02:39.301Z,100134.86
2017-07-31T01:05:06.816Z,100140.11
2017-07-31T01:07:34.385Z,100141.18
2017-07-31T01:10:01.852Z,100137.62
2017-07-31T01:12:29.392Z,100143.30
2017-07-31T01:14:56.873Z,100143.20
2017-07-31T01:17:24.422Z,100145.15
2017-07-31T01:19:51.907Z,100138.00
2017-07-31T01:22:19.355Z,100144.31
2017-07-31T01:24:46.889Z,100143.63
2017-07-31T01:27:14.361Z,100147.96
2017-07-31T01:29:41.921Z,100142.57
2017-07-31T01:32:09.465Z,100140.79
2017-07-31T01:34:37.024Z,100145.89
2017-07-31T01:37:06.425Z,100136.55
2017-07-31T01:39:33.919Z,100132.05
2017-07-31T01:42:01.445Z,100145.00
2017-07-31T01:44:28.968Z,100143.22
2017-07-31T01:46:56.448Z,100137.17
2017-07-31T01:49:23.976Z,100152.11
2017-07-31T01:51:51.429Z,100154.72
2017-07-31T01:54:18.928Z,100161.55
2017-07-31T01:56:46.480Z,100159.66
2017-07-31T01:59:13.960Z,100161.40
2017-07-31T02:01:42.424Z,100157.52
2017-07-31T02:04:10.010Z,100154.60
2017-07-31T02:06:37.485Z,100147.97
2017-07-31T02:09:04.969Z,100166.72
2017-07-31T02:11:32.449Z,100178.36
2017-07-31T02:13:59.946Z,100184.74
2017-07-31T02:16:27.473Z,100179.66
2017-07-31T02:18:55.019Z,100177.98
2017-07-31T02:21:22.484Z,100177.38
2017-07-31T02:23:49.945Z,100179.41
2017-07-31T02:26:18.517Z,100176.37
2017-07-31T02:28:45.978Z,100169.64
2017-07-31T02:31:13.455Z,100160.38
2017-07-31T02:33:40.915Z,100171.66
2017-07-31T02:36:08.389Z,100164.84
2017-07-31T02:38:37.635Z,100161.83
2017-07-31T02:41:05.196Z,100156.75
2017-07-31T02:43:32.654Z,100158.39
2017-07-31T02:46:00.161Z,100152.91
2017-07-31T02:48:27.628Z,100145.80
2017-07-31T02:50:55.137Z,100145.05
2017-07-31T02:53:22.620Z,100145.64
2017-07-31T02:55:50.072Z,100164.95
2017-07-31T02:58:17.591Z,100166.80
2017-07-31T03:00:45.057Z,100169.52
2017-07-31T03:03:12.532Z,100169.83
2017-07-31T03:05:40.073Z,100170.94
2017-07-31T03:08:07.630Z,100181.69
2017-07-31T03:10:35.089Z,100185.66
2017-07-31T03:13:02.577Z,100181.38
2017-07-31T03:15:30.151Z,100178.87
2017-07-31T03:17:57.631Z,100190.92
2017-07-31T03:20:25.125Z,100185.80
2017-07-31T03:22:52.677Z,100182.33
2017-07-31T03:25:20.131Z,100184.46
2017-07-31T03:27:47.623Z,100189.89
2017-07-31T03:30:15.453Z,100188.20
2017-07-31T03:32:42.928Z,100182.55
2017-07-31T03:35:10.472Z,100186.03
2017-07-31T03:37:38.125Z,100186.97
2017-07-31T03:40:05.583Z,100182.19
2017-07-31T03:42:33.031Z,100182.76
2017-07-31T03:45:00.504Z,100168.69
2017-07-31T03:47:27.956Z,100170.98
2017-07-31T03:49:55.755Z,100182.45
2017-07-31T03:52:23.243Z,100192.05
2017-07-31T03:54:50.720Z,100201.16
2017-07-31T03:57:18.167Z,100205.25
2017-07-31T03:59:45.757Z,100207.59
2017-07-31T04:02:13.418Z,100220.88
2017-07-31T04:04:40.959Z,100220.91
2017-07-31T04:07:08.418Z,100210.08
2017-07-31T04:09:35.879Z,100204.63
2017-07-31T04:12:03.328Z,100204.87
2017-07-31T04:14:30.848Z,100210.72
2017-07-31T04:16:58.310Z,100223.23
2017-07-31T04:19:25.804Z,100228.93
2017-07-31T04:21:53.252Z,100233.08
2017-07-31T04:24:20.720Z,100215.05
2017-07-31T04:26:48.280Z,100213.80
2017-07-31T04:29:15.741Z,100221.27
2017-07-31T04:31:43.206Z,100209.95
2017-07-31T04:34:10.772Z,100205.33
2017-07-31T04:36:38.234Z,100207.81
2017-07-31T04:39:05.814Z,100213.92
2017-07-31T04:41:33.337Z,100214.64
2017-07-31T04:44:00.883Z,100225.53
2017-07-31T04:46:28.369Z,100229.83
2017-07-31T04:48:55.834Z,100236.42
2017-07-31T04:51:23.314Z,100239.14
2017-07-31T04:53:50.811Z,100241.66
2017-07-31T04:56:18.284Z,100250.33
2017-07-31T04:58:45.740Z,100232.84
2017-07-31T05:01:13.487Z,100237.47
2017-07-31T05:03:40.996Z,100241.23
2017-07-31T05:06:08.453Z,100232.88
2017-07-31T05:08:35.955Z,100236.33
2017-07-31T05:11:03.403Z,100245.20
2017-07-31T05:13:30.962Z,100247.52
2017-07-31T05:15:58.427Z,100242.46
2017-07-31T05:18:25.925Z,100240.93
2017-07-31T05:20:53.447Z,100249.03
2017-07-31T05:23:20.932Z,100245.72
2017-07-31T05:25:49.043Z,100245.57
2017-07-31T05:28:16.516Z,100240.34
2017-07-31T05:30:43.955Z,100243.25
2017-07-31T05:33:11.437Z,100244.09
2017-07-31T05:35:38.893Z,100242.33
2017-07-31T05:38:06.600Z,100243.11
2017-07-31T05:40:34.145Z,100243.65
2017-07-31T05:43:01.658Z,100248.16
2017-07-31T05:45:29.103Z,100240.77
2017-07-31T05:47:56.551Z,100240.51
2017-07-31T05:50:24.157Z,100231.47
2017-07-31T05:52:51.612Z,100228.69
2017-07-31T05:55:19.089Z,100220.78
2017-07-31T05:57:46.535Z,100233.22
2017-07-31T06:00:14.017Z,100234.40
2017-07-31T06:02:41.560Z,100243.05
2017-07-31T06:05:09.129Z,100247.71
2017-07-31T06:07:36.588Z,100243.77
2017-07-31T06:10:04.059Z,100251.95
2017-07-31T06:12:31.520Z,100259.55
2017-07-31T06:14:59.029Z,100262.89
2017-07-31T06:17:26.591Z,100260.19
2017-07-31T06:19:54.157Z,100259.56
2017-07-31T06:22:21.700Z,100267.51
2017-07-31T06:24:49.178Z,100263.83
2017-07-31T06:27:16.631Z,100280.18
2017-07-31T06:29:44.175Z,100278.50
2017-07-31T06:32:11.620Z,100266.12
2017-07-31T06:34:39.239Z,100274.59
2017-07-31T06:37:06.755Z,100283.90
2017-07-31T06:39:34.306Z,100292.11
2017-07-31T06:42:01.942Z,100286.77
2017-07-31T06:44:29.396Z,100276.58
2017-07-31T06:46:56.875Z,100270.73
2017-07-31T06:49:24.324Z,100278.74
2017-07-31T06:51:51.804Z,100277.41
2017-07-31T06:54:19.361Z,100278.04
2017-07-31T06:56:46.908Z,100282.55
2017-07-31T06:59:14.477Z,100277.78
2017-07-31T07:01:42.035Z,100277.41
2017-07-31T07:04:09.584Z,100271.61
2017-07-31T07:06:37.139Z,100267.55
2017-07-31T07:09:04.583Z,100264.30
2017-07-31T07:11:32.068Z,100267.78
2017-07-31T07:13:59.620Z,100271.86
2017-07-31T07:16:27.171Z,100276.32
2017-07-31T07:18:54.632Z,100275.30
2017-07-31T07:21:22.139Z,100274.19
2017-07-31T07:23:49.641Z,100280.70
2017-07-31T07:26:17.094Z,100284.66
2017-07-31T07:28:44.567Z,100277.61
2017-07-31T07:31:12.042Z,100288.05
2017-07-31T07:33:39.529Z,100289.70
2017-07-31T07:36:06.970Z,100287.63
2017-07-31T07:38:34.449Z,100292.02
2017-07-31T07:41:01.943Z,100292.14
2017-07-31T07:43:29.415Z,100287.13
2017-07-31T07:45:56.949Z,100282.65
2017-07-31T07:48:24.425Z,100276.38
2017-07-31T07:50:52.747Z,100281.85
2017-07-31T07:53:20.211Z,100272.59
2017-07-31T07:55:47.713Z,100270.87
2017-07-31T07:58:15.270Z,100277.17
2017-07-31T08:00:42.724Z,100277.30
2017-07-31T08:03:10.382Z,100279.62
2017-07-31T08:05:37.860Z,100276.88
2017-07-31T08:08:05.321Z,100273.07
2017-07-31T08:10:32.833Z,100273.38
2017-07-31T08:13:00.317Z,100281.51
2017-07-31T08:15:27.870Z,100290.34
2017-07-31T08:17:55.310Z,100289.78
2017-07-31T08:20:22.785Z,100285.97
2017-07-31T08:22:50.246Z,100285.42
2017-07-31T08:25:17.725Z,100289.13
2017-07-31T08:27:45.173Z,100281.31
2017-07-31T08:30:12.640Z,100293.15
2017-07-31T08:32:40.189Z,100290.27
2017-07-31T08:35:07.680Z,100298.02
2017-07-31T08:37:35.145Z,100299.86
2017-07-31T08:40:02.643Z,100299.88
2017-07-31T08:42:30.200Z,100295.30
2017-07-31T08:44:57.647Z,100284.92
2017-07-31T08:47:25.128Z,100287.14
2017-07-31T08:49:52.716Z,100282.58
2017-07-31T08:52:20.226Z,100275.27
2017-07-31T08:54:47.831Z,100277.84
2017-07-31T08:57:15.365Z,100269.41
2017-07-31T08:59:42.819Z,100274.61
2017-07-31T09:02:10.312Z,100268.90
2017-07-31T09:04:37.777Z,100270.61
2017-07-31T09:07:05.257Z,100261.86
2017-07-31T09:09:32.749Z,100275.98
2017-07-31T09:12:00.282Z,100264.77
2017-07-31T09:14:27.773Z,100261.63
2017-07-31T09:16:55.310Z,100258.19
2017-07-31T09:19:22.873Z,100262.64
2017-07-31T09:21:50.386Z,100267.75
2017-07-31T09:24:17.850Z,100278.19
2017-07-31T09:26:45.330Z,100273.92
2017-07-31T09:29:12.813Z,100273.44
2017-07-31T09:31:40.292Z,100287.38
2017-07-31T09:34:07.847Z,100287.52
2017-07-31T09:36:35.306Z,100285.37
2017-07-31T09:39:02.801Z,100279.11
2017-07-31T09:41:30.284Z,100279.22
2017-07-31T09:43:57.771Z,100277.81
2017-07-31T09:46:25.288Z,100282.45
2017-07-31T09:48:52.864Z,100277.81
2017-07-31T09:51:20.320Z,100291.46
2017-07-31T09:53:47.805Z,100289.78
2017-07-31T09:56:15.269Z,100286.86
2017-07-31T09:58:42.735Z,100290.19
2017-07-31T10:01:10.599Z,100281.59
2017-07-31T10:03:38.076Z,100285.67
2017-07-31T10:06:05.535Z,100288.62
2017-07-31T10:08:33.008Z,100285.17
2017-07-31T10:11:00.455Z,100277.36
2017-07-31T10:13:27.908Z,100265.44
2017-07-31T10:15:55.384Z,100272.28
2017-07-31T10:18:22.847Z,100269.45
2017-07-31T10:20:50.314Z,100272.20
2017-07-31T10:23:17.793Z,100265.41
2017-07-31T10:25:45.528Z,100272.45
2017-07-31T10:28:13.033Z,100262.09
2017-07-31T10:30:40.509Z,100261.87
2017-07-31T10:33:07.986Z,100255.78
2017-07-31T10:35:35.461Z,100263.01
2017-07-31T10:38:03.015Z,100264.30
2017-07-31T10:40:30.483Z,100260.91
2017-07-31T10:42:57.944Z,100255.92
2017-07-31T10:45:25.473Z,100261.24
2017-07-31T10:47:53.043Z,100254.78
2017-07-31T10:50:20.557Z,100251.86
2017-07-31T10:52:48.036Z,100255.97
2017-07-31T10:55:15.492Z,100250.72
2017-07-31T10:57:42.955Z,100255.16
2017-07-31T11:00:10.411Z,100265.55
2017-07-31T11:02:37.991Z,100265.61
2017-07-31T11:05:05.561Z,100264.23
2017-07-31T11:07:33.057Z,100267.65
2017-07-31T11:10:00.561Z,100261.23
2017-07-31T11:12:28.136Z,100268.84
2017-07-31T11:14:56.419Z,100261.41
2017-07-31T11:17:23.904Z,100273.40
2017-07-31T11:19:51.357Z,100283.49
2017-07-31T11:22:18.867Z,100282.42
2017-07-31T11:24:46.433Z,100282.30
2017-07-31T11:27:13.924Z,100286.45
2017-07-31T11:32:15.109Z,100291.63
2017-07-31T11:34:42.586Z,100288.28
2017-07-31T11:37:10.895Z,100291.62
2017-07-31T11:39:38.399Z,100290.16
2017-07-31T11:42:05.872Z,100292.05
2017-07-31T11:44:33.342Z,100297.18
2017-07-31T11:47:00.892Z,100300.58
2017-07-31T11:49:28.456Z,100303.38
2017-07-31T11:51:55.913Z,100295.11
2017-07-31T11:54:23.396Z,100301.45
2017-07-31T11:56:50.854Z,100309.80
2017-07-31T11:59:18.433Z,100298.64
2017-07-31T12:01:45.940Z,100298.61
2017-07-31T12:04:13.551Z,100301.38
2017-07-31T12:06:41.071Z,100294.34
2017-07-31T12:09:08.626Z,100298.12
2017-07-31T12:11:36.104Z,100295.16
2017-07-31T12:14:03.683Z,100279.28
2017-07-31T12:16:31.168Z,100277.46
2017-07-31T12:18:58.644Z,100272.30
2017-07-31T12:21:26.111Z,100259.14
2017-07-31T12:23:53.665Z,100263.03
2017-07-31T12:26:21.232Z,100252.08
2017-07-31T12:28:48.697Z,100243.91
2017-07-31T12:31:16.189Z,100229.86
2017-07-31T12:33:43.635Z,100228.37
2017-07-31T12:36:11.245Z,100224.43
2017-07-31T12:38:38.705Z,100226.50
2017-07-31T12:41:06.215Z,100215.62
2017-07-31T12:43:33.700Z,100221.53
2017-07-31T12:46:01.196Z,100212.66
2017-07-31T12:48:28.945Z,100208.09
2017-07-31T12:50:56.405Z,100211.86
2017-07-31T12:53:24.009Z,100215.05
2017-07-31T12:55:51.467Z,100229.50
2017-07-31T12:58:18.984Z,100234.06
2017-07-31T13:00:46.511Z,100227.28
2017-07-31T13:03:14.107Z,100218.47
2017-07-31T13:05:41.565Z,100225.98
2017-07-31T13:08:09.104Z,100228.13
2017-07-31T13:10:36.580Z,100226.14
2017-07-31T13:13:04.061Z,100215.33
2017-07-31T13:15:31.524Z,100209.16
2017-07-31T13:17:58.980Z,100208.12
2017-07-31T13:20:26.447Z,100194.98
2017-07-31T13:22:54.109Z,100190.31
2017-07-31T13:25:21.596Z,100189.70
2017-07-31T13:27:49.115Z,100202.73
2017-07-31T13:30:16.595Z,100208.12
2017-07-31T13:32:44.060Z,100214.73
2017-07-31T13:35:11.559Z,100212.31
2017-07-31T13:37:39.093Z,100212.08
2017-07-31T13:40:06.661Z,100201.95
2017-07-31T13:42:34.239Z,100214.30
2017-07-31T13:45:01.727Z,100208.20
2017-07-31T13:47:29.642Z,100201.16
2017-07-31T13:49:57.137Z,100199.11
2017-07-31T13:52:24.665Z,100196.91
2017-07-31T13:54:52.221Z,100191.14
2017-07-31T13:57:19.773Z,100191.41
2017-07-31T13:59:47.334Z,100196.13
2017-07-31T14:02:14.849Z,100193.93
2017-07-31T14:04:42.341Z,100200.66
2017-07-31T14:07:09.831Z,100204.86
2017-07-31T14:09:37.368Z,100210.45
2017-07-31T14:12:04.925Z,100206.44
2017-07-31T14:14:32.382Z,100213.11
2017-07-31T14:16:59.927Z,100215.94
2017-07-31T14:19:27.386Z,100210.45
2017-07-31T14:21:54.879Z,100213.85
2017-07-31T14:24:22.394Z,100217.35
2017-07-31T14:26:49.878Z,100203.68
2017-07-31T14:29:17.328Z,100198.42
2017-07-31T14:31:44.888Z,100189.80
2017-07-31T14:34:12.771Z,100194.13
2017-07-31T14:36:40.304Z,100186.08
2017-07-31T14:39:07.751Z,100151.98
2017-07-31T14:41:35.220Z,100148.47
2017-07-31T14:44:02.671Z,100177.92
2017-07-31T14:46:30.372Z,100177.96
2017-07-31T14:48:57.883Z,100187.38
2017-07-31T14:51:25.356Z,100189.50
2017-07-31T14:53:52.910Z,100185.84
2017-07-31T14:56:20.483Z,100173.41
2017-07-31T14:58:48.020Z,100166.11
2017-07-31T15:01:15.585Z,100173.59
2017-07-31T15:03:43.064Z,100170.16
2017-07-31T15:06:10.594Z,100174.61
2017-07-31T15:08:38.088Z,100181.03
2017-07-31T15:11:05.609Z,100180.52
2017-07-31T15:13:33.079Z,100149.25
2017-07-31T15:16:00.530Z,100134.07
2017-07-31T15:18:27.995Z,100161.50
2017-07-31T15:20:56.223Z,100184.34
2017-07-31T15:23:23.713Z,100185.95
2017-07-31T15:25:51.173Z,100182.74
2017-07-31T15:28:18.664Z,100161.72
2017-07-31T15:30:46.183Z,100147.44
2017-07-31T15:33:13.718Z,100165.56
2017-07-31T15:35:41.300Z,100192.13
2017-07-31T15:38:08.759Z,100186.07
2017-07-31T15:40:36.315Z,100155.96
2017-07-31T15:43:03.764Z,100115.37
2017-07-31T15:45:31.236Z,100109.34
2017-07-31T15:47:58.962Z,100136.98
2017-07-31T15:50:26.438Z,100151.92
2017-07-31T15:52:53.909Z,100145.73
2017-07-31T15:55:21.398Z,100125.98
2017-07-31T15:57:48.919Z,100128.16
2017-07-31T16:00:16.387Z,100124.08
2017-07-31T16:02:43.839Z,100127.34
2017-07-31T16:05:11.335Z,100130.59
2017-07-31T16:07:38.856Z,100116.66
2017-07-31T16:10:06.342Z,100122.63
2017-07-31T16:12:33.870Z,100123.35
2017-07-31T16:15:01.404Z,100119.48
2017-07-31T16:17:28.889Z,100123.91
2017-07-31T16:19:56.533Z,100125.59
2017-07-31T16:22:24.004Z,100120.17
2017-07-31T16:24:51.533Z,100121.85
2017-07-31T16:27:19.089Z,100116.54
2017-07-31T16:29:46.580Z,100123.48
2017-07-31T16:32:14.286Z,100118.56
2017-07-31T16:34:41.741Z,100125.83
2017-07-31T16:37:17.766Z,100128.40
2017-07-31T16:39:45.309Z,100128.80
2017-07-31T16:42:12.861Z,100120.56
2017-07-31T16:44:48.213Z,100122.55
2017-07-31T16:47:27.179Z,100121.44
2017-07-31T16:49:54.644Z,100115.22
2017-07-31T16:52:22.105Z,100112.35
2017-07-31T16:54:49.601Z,100099.14
2017-07-31T16:57:17.056Z,100098.03
2017-07-31T16:59:44.528Z,100088.53
2017-07-31T17:02:11.984Z,100096.09
2017-07-31T17:04:39.691Z,100092.96
2017-07-31T17:07:07.147Z,100088.20
2017-07-31T17:09:34.651Z,100086.41
2017-07-31T17:12:02.101Z,100087.59
2017-07-31T17:14:29.567Z,100084.84
2017-07-31T17:16:57.121Z,100090.22
2017-07-31T17:19:24.685Z,100092.67
2017-07-31T17:21:52.234Z,100100.22
2017-07-31T17:24:19.792Z,100103.88
2017-07-31T17:26:47.262Z,100091.02
2017-07-31T17:29:18.023Z,100099.02
2017-07-31T17:31:45.541Z,100098.54
2017-07-31T17:34:13.035Z,100097.47
2017-07-31T17:36:40.557Z,100106.03
2017-07-31T17:39:08.032Z,100107.72
2017-07-31T17:41:35.581Z,100109.62
2017-07-31T17:44:03.040Z,100114.36
2017-07-31T17:46:30.567Z,100119.24
2017-07-31T17:48:58.039Z,100125.23
2017-07-31T17:51:25.607Z,100128.36
2017-07-31T17:53:53.086Z,100129.28
2017-07-31T17:56:20.607Z,100125.17
2017-07-31T17:58:48.076Z,100132.22
2017-07-31T18:01:15.651Z,100122.23
2017-07-31T18:03:43.099Z,100122.67
2017-07-31T18:06:10.643Z,100112.26
2017-07-31T18:08:38.121Z,100115.86
2017-07-31T18:11:05.655Z,100120.77
2017-07-31T18:13:33.119Z,100123.64
2017-07-31T18:16:00.684Z,100126.80
2017-07-31T18:18:28.248Z,100121.66
2017-07-31T18:20:55.812Z,100117.56
2017-07-31T18:23:23.362Z,100134.91
2017-07-31T18:25:50.817Z,100132.95
2017-07-31T18:28:18.301Z,100134.81
2017-07-31T18:30:45.838Z,100137.98
2017-07-31T18:33:13.390Z,100141.33
2017-07-31T18:35:40.954Z,100135.70
2017-07-31T18:38:08.503Z,100138.13
2017-07-31T18:40:36.721Z,100132.77
2017-07-31T18:43:04.219Z,100133.53
2017-07-31T18:45:31.696Z,100133.09
2017-07-31T18:47:59.251Z,100129.26
2017-07-31T18:50:26.735Z,100144.63
2017-07-31T18:52:54.578Z,100158.61
2017-07-31T18:55:22.065Z,100167.16
2017-07-31T18:57:49.523Z,100169.95
2017-07-31T19:00:17.043Z,100139.95
2017-07-31T19:02:44.554Z,100133.55
2017-07-31T19:05:12.072Z,100168.08
2017-07-31T19:07:39.549Z,100212.76
2017-07-31T19:10:07.061Z,100225.93
2017-07-31T19:12:34.544Z,100209.13
2017-07-31T19:15:02.025Z,100193.52
2017-07-31T19:17:29.479Z,100172.31
2017-07-31T19:19:56.993Z,100152.16
2017-07-31T19:22:24.449Z,100090.94
2017-07-31T19:24:51.924Z,100054.77
2017-07-31T19:27:19.481Z,100061.48
2017-07-31T19:29:47.044Z,100070.91
2017-07-31T19:32:14.525Z,100089.20
2017-07-31T19:34:42.058Z,100113.81
2017-07-31T19:37:09.611Z,100134.12
2017-07-31T19:39:37.170Z,100140.08
2017-07-31T19:42:04.643Z,100135.22
2017-07-31T19:44:32.174Z,100136.30
2017-07-31T19:46:59.639Z,100138.77
2017-07-31T19:49:27.097Z,100148.46
2017-07-31T19:51:54.851Z,100143.57
2017-07-31T19:54:22.434Z,100133.60
2017-07-31T19:56:49.929Z,100144.66
2017-07-31T19:59:17.438Z,100137.92
2017-07-31T20:01:44.993Z,100140.70
2017-07-31T20:04:12.660Z,100140.31
2017-07-31T20:06:40.111Z,100137.81
2017-07-31T20:09:07.576Z,100131.69
2017-07-31T20:11:35.029Z,100128.78
2017-07-31T20:14:02.507Z,100129.25
2017-07-31T20:16:30.225Z,100117.96
2017-07-31T20:18:57.705Z,100115.82
2017-07-31T20:21:25.253Z,100110.64
2017-07-31T20:23:52.725Z,100109.53
2017-07-31T20:26:20.271Z,100106.32
2017-07-31T20:28:47.833Z,100106.72
2017-07-31T20:31:15.393Z,100103.97
2017-07-31T20:33:44.534Z,100104.59
2017-07-31T20:36:11.988Z,100102.06
2017-07-31T20:38:39.491Z,100097.63
2017-07-31T20:41:06.939Z,100088.45
2017-07-31T20:43:34.417Z,100087.41
2017-07-31T20:46:01.929Z,100097.23
2017-07-31T20:48:29.402Z,100102.84
2017-07-31T20:50:56.932Z,100104.23
2017-07-31T20:53:24.452Z,100104.72
2017-07-31T20:55:51.929Z,100101.87
2017-07-31T20:58:19.461Z,100111.96
2017-07-31T21:00:47.012Z,100115.95
2017-07-31T21:03:14.488Z,100117.48
2017-07-31T21:05:42.395Z,100111.34
2017-07-31T21:08:09.901Z,100122.39
2017-07-31T21:10:38.319Z,100111.55
2017-07-31T21:13:05.796Z,100107.84
2017-07-31T21:15:33.341Z,100102.48
2017-07-31T21:18:00.872Z,100097.69
2017-07-31T21:20:28.332Z,100094.01
2017-07-31T21:22:55.860Z,100086.83
2017-07-31T21:25:23.317Z,100099.95
2017-07-31T21:27:50.809Z,100104.17
2017-07-31T21:30:18.383Z,100096.46
2017-07-31T21:32:45.904Z,100101.36
2017-07-31T21:35:13.386Z,100107.84
2017-07-31T21:37:40.870Z,100104.50
2017-07-31T21:40:08.377Z,100094.55
2017-07-31T21:42:35.929Z,100090.64
2017-07-31T21:45:03.387Z,100089.29
2017-07-31T21:47:30.873Z,100093.66
2017-07-31T21:49:58.324Z,100095.17
2017-07-31T21:52:27.287Z,100096.91
2017-07-31T21:54:54.741Z,100106.27
2017-07-31T21:57:22.218Z,100107.30
2017-07-31T21:59:49.682Z,100117.93
2017-07-31T22:02:17.159Z,100123.89
2017-07-31T22:04:44.632Z,100113.89
2017-07-31T22:07:12.279Z,100095.13
2017-07-31T22:09:39.783Z,100078.55
2017-07-31T22:12:07.240Z,100068.14
2017-07-31T22:14:34.798Z,100062.83
2017-07-31T22:17:07.766Z,100066.57
2017-07-31T22:19:35.278Z,100066.48
2017-07-31T22:22:03.686Z,100056.45
2017-07-31T22:24:31.181Z,100068.73
2017-07-31T22:26:59.923Z,100077.81
2017-07-31T22:29:27.427Z,100079.97
2017-07-31T22:31:54.980Z,100079.16
2017-07-31T22:34:22.470Z,100093.76
2017-07-31T22:36:49.996Z,100127.95
2017-07-31T22:39:17.499Z,100163.85
2017-07-31T22:41:45.011Z,100203.63
2017-07-31T22:44:12.491Z,100208.06
2017-07-31T22:46:40.032Z,100180.08
2017-07-31T22:49:07.590Z,100136.57
2017-07-31T22:51:35.157Z,100093.12
2017-07-31T22:54:02.620Z,100081.13
2017-07-31T22:56:30.104Z,100092.08
2017-07-31T22:58:57.621Z,100102.44
2017-07-31T23:01:25.109Z,100109.69
2017-07-31T23:03:52.692Z,100111.69
2017-07-31T23:06:20.188Z,100103.98
2017-07-31T23:08:47.748Z,100092.83
2017-07-31T23:11:15.241Z,100077.16
2017-07-31T23:13:42.732Z,100068.62
2017-07-31T23:16:10.215Z,100054.75
2017-07-31T23:18:37.831Z,100038.16
2017-07-31T23:21:05.437Z,100044.37
2017-07-31T23:23:33.005Z,100027.49
2017-07-31T23:26:00.861Z,100018.92
2017-07-31T23:28:28.400Z,100013.00
2017-07-31T23:30:55.855Z,100008.37
2017-07-31T23:33:23.353Z,100015.28
2017-07-31T23:35:50.896Z,100008.61
2017-07-31T23:38:18.462Z,100004.00
2017-07-31T23:40:45.933Z,99982.23
2017-07-31T23:43:13.430Z,99981.31
2017-07-31T23:45:40.929Z,99988.52
2017-07-31T23:48:08.485Z,99983.00
2017-07-31T23:50:35.939Z,99971.97
2017-07-31T23:53:03.552Z,99979.00
2017-07-31T23:55:31.020Z,99982.33
2017-07-31T23:57:58.514Z,99975.92
